createdAt,value
2023-01-15T00:02:25.750Z,86.78
2023-01-15T00:04:53.327Z,86.83
2023-01-15T00:07:22.079Z,86.79
2023-01-15T00:09:50.882Z,86.70
2023-01-15T00:12:18.338Z,87.65
2023-01-15T00:14:45.867Z,87.25
2023-01-15T00:17:13.322Z,87.76
2023-01-15T00:19:40.816Z,87.15
2023-01-15T00:22:08.927Z,87.57
2023-01-15T00:24:55.652Z,87.20
2023-01-15T00:27:41.010Z,87.13
2023-01-15T00:30:11.036Z,87.33
2023-01-15T00:32:39.638Z,87.08
2023-01-15T00:35:08.067Z,87.67
2023-01-15T00:37:35.515Z,87.77
2023-01-15T00:40:04.934Z,88.26
2023-01-15T00:42:32.383Z,88.01
2023-01-15T00:45:05.739Z,87.23
2023-01-15T00:47:33.310Z,87.76
2023-01-15T00:50:00.770Z,88.26
2023-01-15T00:52:28.268Z,88.27
2023-01-15T00:54:55.736Z,88.10
2023-01-15T00:57:24.503Z,88.75
2023-01-15T00:59:52.009Z,89.27
2023-01-15T01:02:20.055Z,89.19
2023-01-15T01:04:47.764Z,87.90
2023-01-15T01:07:15.555Z,89.03
2023-01-15T01:09:43.132Z,88.87
2023-01-15T01:12:10.804Z,88.55
2023-01-15T01:14:39.649Z,88.48
2023-01-15T01:17:07.132Z,88.48
2023-01-15T01:19:34.633Z,88.22
2023-01-15T01:22:02.079Z,89.21
2023-01-15T01:24:29.664Z,88.32
2023-01-15T01:26:57.221Z,88.59
2023-01-15T01:29:25.285Z,88.38
2023-01-15T01:31:54.065Z,88.42
2023-01-15T01:34:21.868Z,89.53
2023-01-15T01:36:49.378Z,89.02
2023-01-15T01:39:18.685Z,89.20
2023-01-15T01:41:47.009Z,88.39
2023-01-15T01:44:52.100Z,88.30
2023-01-15T01:47:22.959Z,87.75
2023-01-15T01:49:51.298Z,88.33
2023-01-15T01:52:22.250Z,88.19
2023-01-15T01:54:50.933Z,89.32
2023-01-15T01:57:19.702Z,90.37
2023-01-15T01:59:48.293Z,91.18
2023-01-15T02:02:16.181Z,90.49
2023-01-15T02:04:45.444Z,90.24
2023-01-15T02:07:13.005Z,90.87
2023-01-15T02:09:40.500Z,90.26
2023-01-15T02:12:12.246Z,90.55
2023-01-15T02:14:44.287Z,91.15
2023-01-15T02:17:15.182Z,89.77
2023-01-15T02:19:52.849Z,91.04
2023-01-15T02:22:25.301Z,88.88
2023-01-15T02:25:01.142Z,87.40
2023-01-15T02:27:30.052Z,86.75
2023-01-15T02:30:00.112Z,85.87
2023-01-15T02:32:32.612Z,85.95
2023-01-15T02:35:06.034Z,85.27
2023-01-15T02:37:35.134Z,84.83
2023-01-15T02:40:03.807Z,85.27
2023-01-15T02:42:34.548Z,85.20
2023-01-15T02:45:04.104Z,85.79
2023-01-15T02:47:35.319Z,86.88
2023-01-15T02:50:05.988Z,86.46
2023-01-15T02:52:35.708Z,87.18
2023-01-15T02:55:07.084Z,84.71
2023-01-15T02:57:38.446Z,84.61
2023-01-15T03:00:08.908Z,86.60
2023-01-15T03:02:40.539Z,84.99
2023-01-15T03:05:10.510Z,86.53
2023-01-15T03:07:41.105Z,85.39
2023-01-15T03:10:09.446Z,86.67
2023-01-15T03:13:02.215Z,86.24
2023-01-15T03:15:56.542Z,86.79
2023-01-15T03:18:26.788Z,85.97
2023-01-15T03:20:59.036Z,86.82
2023-01-15T03:23:28.213Z,87.41
2023-01-15T03:25:55.703Z,86.71
2023-01-15T03:28:27.344Z,86.17
2023-01-15T03:30:54.878Z,86.51
2023-01-15T03:33:22.360Z,86.42
2023-01-15T03:35:53.026Z,87.33
2023-01-15T03:38:22.638Z,85.70
2023-01-15T03:40:57.260Z,87.06
2023-01-15T03:43:44.302Z,86.79
2023-01-15T03:46:32.817Z,87.52
2023-01-15T03:49:04.056Z,85.95
2023-01-15T03:51:37.144Z,84.73
2023-01-15T03:54:09.471Z,87.60
2023-01-15T03:56:41.440Z,85.29
2023-01-15T03:59:12.901Z,86.71
2023-01-15T04:01:42.380Z,85.54
2023-01-15T04:04:11.127Z,85.92
2023-01-15T04:06:39.832Z,86.08
2023-01-15T04:09:09.727Z,86.46
2023-01-15T04:11:37.759Z,84.70
2023-01-15T04:14:05.482Z,84.66
2023-01-15T04:16:34.794Z,84.72
2023-01-15T04:19:02.329Z,84.70
2023-01-15T04:21:30.735Z,84.42
2023-01-15T04:23:58.204Z,84.89
2023-01-15T04:26:25.899Z,85.43
2023-01-15T04:28:53.357Z,85.88
2023-01-15T04:31:20.893Z,84.28
2023-01-15T04:33:49.713Z,83.80
2023-01-15T04:36:17.306Z,84.63
2023-01-15T04:38:44.789Z,86.02
2023-01-15T04:41:29.980Z,84.95
2023-01-15T04:44:09.464Z,85.20
2023-01-15T04:46:39.094Z,85.47
2023-01-15T04:49:11.007Z,84.95
2023-01-15T04:51:39.526Z,85.48
2023-01-15T04:54:07.340Z,86.18
2023-01-15T04:56:39.979Z,85.28
2023-01-15T04:59:07.965Z,84.91
2023-01-15T05:01:35.844Z,85.33
2023-01-15T05:04:03.684Z,83.80
2023-01-15T05:06:32.530Z,85.02
2023-01-15T05:09:00.338Z,83.94
2023-01-15T05:11:27.981Z,84.57
2023-01-15T05:13:55.608Z,85.38
2023-01-15T05:16:25.572Z,84.56
2023-01-15T05:18:54.280Z,85.33
2023-01-15T05:21:23.698Z,84.95
2023-01-15T05:23:54.802Z,85.58
2023-01-15T05:26:23.039Z,83.37
2023-01-15T05:28:51.078Z,85.30
2023-01-15T05:31:20.092Z,85.40
2023-01-15T05:33:49.318Z,84.63
2023-01-15T05:36:18.567Z,82.78
2023-01-15T05:38:46.252Z,84.39
2023-01-15T05:41:34.128Z,83.17
2023-01-15T05:44:03.719Z,83.92
2023-01-15T05:46:31.260Z,84.07
2023-01-15T05:49:01.189Z,84.51
2023-01-15T05:51:29.177Z,83.79
2023-01-15T05:53:58.243Z,83.77
2023-01-15T05:56:27.112Z,84.42
2023-01-15T05:58:55.039Z,84.29
2023-01-15T06:01:23.313Z,82.82
2023-01-15T06:03:50.917Z,84.08
2023-01-15T06:06:19.451Z,82.12
2023-01-15T06:08:46.944Z,83.50
2023-01-15T06:11:14.439Z,83.80
2023-01-15T06:13:43.213Z,82.97
2023-01-15T06:16:11.719Z,83.55
2023-01-15T06:18:39.678Z,84.26
2023-01-15T06:21:08.742Z,82.87
2023-01-15T06:23:37.154Z,82.98
2023-01-15T06:26:06.285Z,83.17
2023-01-15T06:28:34.329Z,82.64
2023-01-15T06:31:05.650Z,82.29
2023-01-15T06:33:33.174Z,80.53
2023-01-15T06:36:04.048Z,82.37
2023-01-15T06:38:31.523Z,82.13
2023-01-15T06:41:00.066Z,82.59
2023-01-15T06:43:45.182Z,81.41
2023-01-15T06:46:32.544Z,81.94
2023-01-15T06:49:00.027Z,82.43
2023-01-15T06:51:28.772Z,81.35
2023-01-15T06:53:57.734Z,82.62
2023-01-15T06:56:25.348Z,82.79
2023-01-15T06:58:52.799Z,82.11
2023-01-15T07:01:21.675Z,81.92
2023-01-15T07:03:49.390Z,82.89
2023-01-15T07:06:16.918Z,80.90
2023-01-15T07:08:44.374Z,82.85
2023-01-15T07:11:12.405Z,82.50
2023-01-15T07:13:39.860Z,82.37
2023-01-15T07:16:26.769Z,82.38
2023-01-15T07:18:56.384Z,79.43
2023-01-15T07:21:24.253Z,82.48
2023-01-15T07:23:51.752Z,81.00
2023-01-15T07:26:19.226Z,79.96
2023-01-15T07:28:46.736Z,82.59
2023-01-15T07:31:14.230Z,82.31
2023-01-15T07:33:41.697Z,81.56
2023-01-15T07:36:10.766Z,81.96
2023-01-15T07:38:38.279Z,81.66
2023-01-15T07:41:19.858Z,80.99
2023-01-15T07:44:05.152Z,82.35
2023-01-15T07:46:50.543Z,81.88
2023-01-15T07:49:40.967Z,82.88
2023-01-15T07:52:09.744Z,81.19
2023-01-15T07:54:37.231Z,82.48
2023-01-15T07:57:04.901Z,81.93
2023-01-15T07:59:32.389Z,81.19
2023-01-15T08:01:59.965Z,82.64
2023-01-15T08:04:27.525Z,82.79
2023-01-15T08:06:55.012Z,82.56
2023-01-15T08:09:25.753Z,80.87
2023-01-15T08:12:11.198Z,81.40
2023-01-15T08:14:56.079Z,81.58
2023-01-15T08:17:23.566Z,81.54
2023-01-15T08:19:51.054Z,81.07
2023-01-15T08:22:18.561Z,82.04
2023-01-15T08:24:47.343Z,82.25
2023-01-15T08:27:14.836Z,81.57
2023-01-15T08:29:42.324Z,80.63
2023-01-15T08:32:09.927Z,80.85
2023-01-15T08:34:37.717Z,80.97
2023-01-15T08:37:05.209Z,80.94
2023-01-15T08:39:32.751Z,80.00
2023-01-15T08:42:01.557Z,81.07
2023-01-15T08:44:29.043Z,81.09
2023-01-15T08:46:56.798Z,80.90
2023-01-15T08:49:24.359Z,82.73
2023-01-15T08:51:52.916Z,81.66
2023-01-15T08:54:21.400Z,79.32
2023-01-15T08:56:49.767Z,80.82
2023-01-15T08:59:19.723Z,80.61
2023-01-15T09:01:47.561Z,80.51
2023-01-15T09:04:16.222Z,81.71
2023-01-15T09:06:44.283Z,81.31
2023-01-15T09:09:12.263Z,81.46
2023-01-15T09:11:41.487Z,81.38
2023-01-15T09:14:09.350Z,81.64
2023-01-15T09:16:58.905Z,79.63
2023-01-15T09:19:26.899Z,80.36
2023-01-15T09:21:54.405Z,79.97
2023-01-15T09:24:21.946Z,81.53
2023-01-15T09:26:53.085Z,79.83
2023-01-15T09:29:20.853Z,80.61
2023-01-15T09:31:48.437Z,80.24
2023-01-15T09:34:17.237Z,80.29
2023-01-15T09:36:46.443Z,81.71
2023-01-15T09:39:14.217Z,80.42
2023-01-15T09:42:09.130Z,80.90
2023-01-15T09:44:45.060Z,80.49
2023-01-15T09:47:15.884Z,81.79
2023-01-15T09:49:55.947Z,80.96
2023-01-15T09:52:29.500Z,80.08
2023-01-15T09:55:02.838Z,81.08
2023-01-15T09:57:30.793Z,80.35
2023-01-15T10:00:02.371Z,81.19
2023-01-15T10:02:38.821Z,81.17
2023-01-15T10:05:12.623Z,80.64
2023-01-15T10:07:42.960Z,81.07
2023-01-15T10:10:13.714Z,80.82
2023-01-15T10:12:44.545Z,81.35
2023-01-15T10:15:19.654Z,80.62
2023-01-15T10:17:48.796Z,80.97
2023-01-15T10:20:24.309Z,80.61
2023-01-15T10:23:10.713Z,80.71
2023-01-15T10:25:47.616Z,79.59
2023-01-15T10:28:20.651Z,79.41
2023-01-15T10:30:48.595Z,79.83
2023-01-15T10:33:29.417Z,80.70
2023-01-15T10:36:01.528Z,80.37
2023-01-15T10:38:33.625Z,80.38
2023-01-15T10:41:11.425Z,79.33
2023-01-15T10:43:45.716Z,78.06
2023-01-15T10:46:15.491Z,79.44
2023-01-15T10:48:45.579Z,78.98
2023-01-15T10:51:17.331Z,77.71
2023-01-15T10:53:48.146Z,79.10
2023-01-15T10:56:22.581Z,79.81
2023-01-15T10:58:53.265Z,79.43
2023-01-15T11:01:23.587Z,78.59
2023-01-15T11:03:51.200Z,81.01
2023-01-15T11:06:21.366Z,79.50
2023-01-15T11:09:10.438Z,79.66
2023-01-15T11:11:59.742Z,80.74
2023-01-15T11:14:55.377Z,80.04
2023-01-15T11:17:41.303Z,79.78
2023-01-15T11:20:17.592Z,80.04
2023-01-15T11:22:46.374Z,81.48
2023-01-15T11:25:15.052Z,80.45
2023-01-15T11:27:42.676Z,80.21
2023-01-15T11:30:26.053Z,79.87
2023-01-15T11:32:56.890Z,81.08
2023-01-15T11:35:24.373Z,80.00
2023-01-15T11:38:02.780Z,79.20
2023-01-15T11:40:30.816Z,79.61
2023-01-15T11:43:15.876Z,80.30
2023-01-15T11:46:08.020Z,80.21
2023-01-15T11:49:01.395Z,79.34
2023-01-15T11:51:29.372Z,79.22
2023-01-15T11:54:01.817Z,79.67
2023-01-15T11:56:31.264Z,79.03
2023-01-15T11:59:00.352Z,78.32
2023-01-15T12:01:30.811Z,79.07
2023-01-15T12:03:59.846Z,78.88
2023-01-15T12:06:28.172Z,78.43
2023-01-15T12:09:02.364Z,79.06
2023-01-15T12:11:41.120Z,79.23
2023-01-15T12:14:28.887Z,78.66
2023-01-15T12:17:02.811Z,77.86
2023-01-15T12:19:37.098Z,77.36
2023-01-15T12:22:14.827Z,77.78
2023-01-15T12:24:56.525Z,78.01
2023-01-15T12:27:36.137Z,77.16
2023-01-15T12:30:05.490Z,76.96
2023-01-15T12:32:37.073Z,77.78
2023-01-15T12:35:07.892Z,77.09
2023-01-15T12:37:39.049Z,76.73
2023-01-15T12:40:20.223Z,76.20
2023-01-15T12:43:07.384Z,76.80
2023-01-15T12:45:38.492Z,76.70
2023-01-15T12:48:13.702Z,76.14
2023-01-15T12:50:45.080Z,75.65
2023-01-15T12:53:16.780Z,76.63
2023-01-15T12:55:50.185Z,76.16
2023-01-15T12:58:29.904Z,74.84
2023-01-15T13:01:05.427Z,75.33
2023-01-15T13:03:37.690Z,74.56
2023-01-15T13:06:08.318Z,76.12
2023-01-15T13:08:38.330Z,75.82
2023-01-15T13:11:07.648Z,73.29
2023-01-15T13:13:37.471Z,75.38
2023-01-15T13:16:14.141Z,74.24
2023-01-15T13:18:52.537Z,74.44
2023-01-15T13:21:21.532Z,73.20
2023-01-15T13:23:59.204Z,74.43
2023-01-15T13:26:57.191Z,75.30
2023-01-15T13:29:35.461Z,74.23
2023-01-15T13:32:06.328Z,73.95
2023-01-15T13:34:38.492Z,72.97
2023-01-15T13:37:09.786Z,73.65
2023-01-15T13:39:40.449Z,74.65
2023-01-15T13:42:33.590Z,73.95
2023-01-15T13:45:05.210Z,72.14
2023-01-15T13:47:35.524Z,72.49
2023-01-15T13:50:06.089Z,71.54
2023-01-15T13:52:34.986Z,72.19
2023-01-15T13:55:10.270Z,73.58
2023-01-15T13:57:41.490Z,73.60
2023-01-15T14:00:26.896Z,73.89
2023-01-15T14:02:56.077Z,73.90
2023-01-15T14:05:30.668Z,73.63
2023-01-15T14:07:58.583Z,70.77
2023-01-15T14:10:35.121Z,71.81
2023-01-15T14:13:16.633Z,70.47
2023-01-15T14:15:52.595Z,72.54
2023-01-15T14:18:31.206Z,70.39
2023-01-15T14:21:12.761Z,72.38
2023-01-15T14:24:00.144Z,71.29
2023-01-15T14:26:36.461Z,71.90
2023-01-15T14:29:25.955Z,70.95
2023-01-15T14:32:01.582Z,70.49
2023-01-15T14:34:30.434Z,71.83
2023-01-15T14:37:00.661Z,71.31
2023-01-15T14:39:38.887Z,69.80
2023-01-15T14:42:27.208Z,70.50
2023-01-15T14:45:02.436Z,70.54
2023-01-15T14:47:33.384Z,69.21
2023-01-15T14:50:03.839Z,71.20
2023-01-15T14:52:31.887Z,71.53
2023-01-15T14:54:59.913Z,71.85
2023-01-15T14:57:27.553Z,70.15
2023-01-15T14:59:57.577Z,68.47
2023-01-15T15:02:33.145Z,71.67
2023-01-15T15:05:01.523Z,71.62
2023-01-15T15:07:35.605Z,71.33
2023-01-15T15:10:06.784Z,69.84
2023-01-15T15:12:39.715Z,68.58
2023-01-15T15:15:08.824Z,71.98
2023-01-15T15:17:45.643Z,71.85
2023-01-15T15:20:32.513Z,71.44
2023-01-15T15:23:05.024Z,71.81
2023-01-15T15:25:34.805Z,69.35
2023-01-15T15:28:04.049Z,70.52
2023-01-15T15:30:33.754Z,71.94
2023-01-15T15:33:05.188Z,71.56
2023-01-15T15:35:33.397Z,72.17
2023-01-15T15:38:05.091Z,70.39
2023-01-15T15:40:34.197Z,70.44
2023-01-15T15:43:24.137Z,69.75
2023-01-15T15:46:11.187Z,71.16
2023-01-15T15:48:42.826Z,71.99
2023-01-15T15:51:26.073Z,70.90
2023-01-15T15:54:03.215Z,72.19
2023-01-15T15:56:32.128Z,71.65
2023-01-15T15:59:00.221Z,71.98
2023-01-15T16:01:27.821Z,71.37
2023-01-15T16:03:56.671Z,70.76
2023-01-15T16:06:26.177Z,70.24
2023-01-15T16:08:54.799Z,71.76
2023-01-15T16:11:23.793Z,70.80
2023-01-15T16:13:53.246Z,70.69
2023-01-15T16:16:21.776Z,70.28
2023-01-15T16:18:52.571Z,71.10
2023-01-15T16:21:25.324Z,71.34
2023-01-15T16:23:59.844Z,69.22
2023-01-15T16:26:33.435Z,69.66
2023-01-15T16:29:02.892Z,72.14
2023-01-15T16:31:34.384Z,71.77
2023-01-15T16:34:02.113Z,70.53
2023-01-15T16:36:39.358Z,72.04
2023-01-15T16:39:07.941Z,70.66
2023-01-15T16:41:42.310Z,70.36
2023-01-15T16:44:25.388Z,71.48
2023-01-15T16:46:55.723Z,69.97
2023-01-15T16:49:27.824Z,71.02
2023-01-15T16:51:58.085Z,71.07
2023-01-15T16:54:43.427Z,70.55
2023-01-15T16:57:27.586Z,71.34
2023-01-15T16:59:57.211Z,71.92
2023-01-15T17:02:29.756Z,71.83
2023-01-15T17:04:57.399Z,71.81
2023-01-15T17:07:29.959Z,72.44
2023-01-15T17:10:00.329Z,70.81
2023-01-15T17:12:30.987Z,73.01
2023-01-15T17:15:01.296Z,71.98
2023-01-15T17:17:29.790Z,71.57
2023-01-15T17:19:57.845Z,72.64
2023-01-15T17:22:29.282Z,72.16
2023-01-15T17:24:58.003Z,73.25
2023-01-15T17:27:25.872Z,72.50
2023-01-15T17:29:53.677Z,72.44
2023-01-15T17:32:25.455Z,72.46
2023-01-15T17:34:52.919Z,73.05
2023-01-15T17:37:20.412Z,72.70
2023-01-15T17:39:49.167Z,72.45
2023-01-15T17:42:18.125Z,71.47
2023-01-15T17:44:46.284Z,72.00
2023-01-15T17:47:14.184Z,72.73
2023-01-15T17:49:41.729Z,72.66
2023-01-15T17:52:16.827Z,72.54
2023-01-15T17:55:01.876Z,72.07
2023-01-15T17:57:48.293Z,71.21
2023-01-15T18:00:34.417Z,71.10
2023-01-15T18:03:19.678Z,72.71
2023-01-15T18:05:48.157Z,72.29
2023-01-15T18:08:18.654Z,71.76
2023-01-15T18:10:46.155Z,70.71
2023-01-15T18:13:14.967Z,71.75
2023-01-15T18:15:42.450Z,72.46
2023-01-15T18:18:11.217Z,72.08
2023-01-15T18:20:38.878Z,72.15
2023-01-15T18:23:06.362Z,69.79
2023-01-15T18:25:35.123Z,72.03
2023-01-15T18:28:02.595Z,72.82
2023-01-15T18:30:32.327Z,72.41
2023-01-15T18:33:02.573Z,69.64
2023-01-15T18:35:30.210Z,72.47
2023-01-15T18:37:57.928Z,71.64
2023-01-15T18:40:29.682Z,72.34
2023-01-15T18:43:15.146Z,73.18
2023-01-15T18:46:04.293Z,72.25
2023-01-15T18:48:31.744Z,72.08
2023-01-15T18:51:00.238Z,72.16
2023-01-15T18:53:27.701Z,72.76
2023-01-15T18:55:55.180Z,71.78
2023-01-15T18:58:22.650Z,71.91
2023-01-15T19:00:51.551Z,70.03
2023-01-15T19:03:19.537Z,71.77
2023-01-15T19:05:47.079Z,71.69
2023-01-15T19:08:14.595Z,72.13
2023-01-15T19:10:42.109Z,72.23
2023-01-15T19:13:09.732Z,72.26
2023-01-15T19:15:54.691Z,70.27
2023-01-15T19:18:41.158Z,71.93
2023-01-15T19:21:10.326Z,72.88
2023-01-15T19:23:37.815Z,72.34
2023-01-15T19:26:05.478Z,71.93
2023-01-15T19:28:33.338Z,72.34
2023-01-15T19:31:18.880Z,70.53
2023-01-15T19:33:47.732Z,71.90
2023-01-15T19:36:15.212Z,71.76
2023-01-15T19:38:42.712Z,71.43
2023-01-15T19:41:29.072Z,73.22
2023-01-15T19:44:14.380Z,70.79
2023-01-15T19:46:59.687Z,72.23
2023-01-15T19:49:56.689Z,72.50
2023-01-15T19:52:36.771Z,72.55
2023-01-15T19:55:06.017Z,71.73
2023-01-15T19:57:33.495Z,71.62
2023-01-15T20:00:00.967Z,72.41
2023-01-15T20:02:28.468Z,72.61
2023-01-15T20:04:57.276Z,71.45
2023-01-15T20:07:24.751Z,70.36
2023-01-15T20:09:52.271Z,70.92
2023-01-15T20:12:37.593Z,72.42
2023-01-15T20:15:05.771Z,72.88
2023-01-15T20:17:33.682Z,71.91
2023-01-15T20:20:02.614Z,72.18
2023-01-15T20:22:31.126Z,71.96
2023-01-15T20:24:58.898Z,72.03
2023-01-15T20:27:26.398Z,72.79
2023-01-15T20:29:54.171Z,72.71
2023-01-15T20:32:21.664Z,72.82
2023-01-15T20:34:49.126Z,73.17
2023-01-15T20:37:17.913Z,72.13
2023-01-15T20:39:45.378Z,73.22
2023-01-15T20:42:30.468Z,72.66
2023-01-15T20:44:58.058Z,72.04
2023-01-15T20:47:41.819Z,72.10
2023-01-15T20:50:10.913Z,73.33
2023-01-15T20:52:41.357Z,72.61
2023-01-15T20:55:09.427Z,74.14
2023-01-15T20:57:38.218Z,73.16
2023-01-15T21:00:10.489Z,73.66
2023-01-15T21:02:37.992Z,72.74
2023-01-15T21:05:06.595Z,72.88
2023-01-15T21:07:34.392Z,72.85
2023-01-15T21:10:03.288Z,72.26
2023-01-15T21:12:30.765Z,72.04
2023-01-15T21:14:58.261Z,73.13
2023-01-15T21:17:25.732Z,73.71
2023-01-15T21:19:53.233Z,73.77
2023-01-15T21:22:20.738Z,74.20
2023-01-15T21:24:50.075Z,73.50
2023-01-15T21:27:20.202Z,72.67
2023-01-15T21:29:48.277Z,73.18
2023-01-15T21:32:15.758Z,74.23
2023-01-15T21:34:43.224Z,74.36
2023-01-15T21:37:10.693Z,74.32
2023-01-15T21:39:38.693Z,73.77
2023-01-15T21:42:23.795Z,74.12
2023-01-15T21:44:52.557Z,74.47
2023-01-15T21:47:20.687Z,73.38
2023-01-15T21:49:48.177Z,74.34
2023-01-15T21:52:18.454Z,74.87
2023-01-15T21:54:46.325Z,75.34
2023-01-15T21:57:15.478Z,75.54
2023-01-15T21:59:43.458Z,74.77
2023-01-15T22:02:15.194Z,75.09
2023-01-15T22:04:43.508Z,75.45
2023-01-15T22:07:11.276Z,75.69
2023-01-15T22:09:38.793Z,75.93
2023-01-15T22:12:06.903Z,75.75
2023-01-15T22:14:35.019Z,76.16
2023-01-15T22:17:04.405Z,76.37
2023-01-15T22:19:34.040Z,76.67
2023-01-15T22:22:03.107Z,76.46
2023-01-15T22:24:32.436Z,76.57
2023-01-15T22:27:00.744Z,76.55
2023-01-15T22:29:29.727Z,77.06
2023-01-15T22:31:57.446Z,76.40
2023-01-15T22:34:26.257Z,76.74
2023-01-15T22:36:55.285Z,76.52
2023-01-15T22:39:23.815Z,76.73
2023-01-15T22:42:09.080Z,77.11
2023-01-15T22:44:36.817Z,76.68
2023-01-15T22:47:04.989Z,76.93
2023-01-15T22:49:32.875Z,77.12
2023-01-15T22:52:01.869Z,77.05
2023-01-15T22:54:29.334Z,76.58
2023-01-15T22:56:56.803Z,76.88
2023-01-15T22:59:24.588Z,76.67
2023-01-15T23:01:52.166Z,77.28
2023-01-15T23:04:21.297Z,77.10
2023-01-15T23:06:49.055Z,77.28
2023-01-15T23:09:18.156Z,77.32
2023-01-15T23:11:46.204Z,76.92
2023-01-15T23:14:15.664Z,77.65
2023-01-15T23:16:43.169Z,77.08
2023-01-15T23:19:12.115Z,77.57
2023-01-15T23:21:40.329Z,77.34
2023-01-15T23:24:08.127Z,77.66
2023-01-15T23:26:37.294Z,78.06
2023-01-15T23:29:05.176Z,77.52
2023-01-15T23:31:33.028Z,78.11
2023-01-15T23:34:00.513Z,77.42
2023-01-15T23:36:28.327Z,78.14
2023-01-15T23:38:55.912Z,78.26
2023-01-15T23:41:40.035Z,78.08
2023-01-15T23:44:30.427Z,77.48
2023-01-15T23:46:57.886Z,77.96
2023-01-15T23:49:25.641Z,77.81
2023-01-15T23:51:53.154Z,77.91
2023-01-15T23:54:20.657Z,78.03
2023-01-15T23:56:48.808Z,78.33
2023-01-15T23:59:17.647Z,77.92
